Time;durP1;ratioP1;P1;durP2;ratioP2;P2;SDS_P1;SDS_P2;PMS_P1;PMS_P2;Temp;Humidity;BMP_temperature;BMP_pressure;BME280_temperature;BME280_humidity;BME280_pressure;Samples;Min_cycle;Max_cycle;Signal;HPM_P1;HPM_P2
2022/10/15 00:01:43;;;;;;;382.02;70.25;;;11.80;99.90;;;;;;4931308;28;20047;-76
2022/10/15 00:04:08;;;;;;;208.80;56.13;;;11.90;99.90;;;;;;4934211;29;20063;-76
2022/10/15 00:06:34;;;;;;;239.13;58.17;;;11.90;99.90;;;;;;4921654;28;20050;-77
2022/10/15 00:09:00;;;;;;;456.77;73.25;;;11.90;99.90;;;;;;4934894;28;20767;-77
2022/10/15 00:11:27;;;;;;;248.52;63.47;;;11.90;99.90;;;;;;4933717;28;20047;-77
2022/10/15 00:13:55;;;;;;;303.58;66.85;;;11.90;99.90;;;;;;4934484;29;20622;-77
2022/10/15 00:16:23;;;;;;;154.98;55.25;;;11.90;99.90;;;;;;4918049;28;20126;-77
2022/10/15 00:18:50;;;;;;;319.17;69.10;;;12.00;99.90;;;;;;4945649;28;20038;-77
2022/10/15 00:21:19;;;;;;;194.50;58.90;;;11.90;99.90;;;;;;4934686;29;20039;-77
2022/10/15 00:23:45;;;;;;;158.95;57.70;;;12.00;99.90;;;;;;4925179;28;20495;-77
2022/10/15 00:26:18;;;;;;;425.83;76.43;;;11.90;99.90;;;;;;4935553;29;20067;-77
2022/10/15 00:28:44;;;;;;;323.63;66.97;;;12.00;99.90;;;;;;4948498;28;20035;-77
2022/10/15 00:31:14;;;;;;;291.90;65.18;;;11.90;99.90;;;;;;4933826;29;20094;-77
2022/10/15 00:33:40;;;;;;;463.83;78.47;;;11.90;99.90;;;;;;4928571;28;20518;-77
2022/10/15 00:36:14;;;;;;;234.75;62.00;;;11.90;99.90;;;;;;4920573;29;20073;-77
2022/10/15 00:38:41;;;;;;;225.70;60.15;;;11.90;99.90;;;;;;4935658;28;20086;-77
2022/10/15 00:41:11;;;;;;;484.27;78.20;;;11.90;99.90;;;;;;4929458;29;20491;-77
2022/10/15 00:43:52;;;;;;;200.55;58.55;;;11.90;99.90;;;;;;4934833;28;20035;-77
2022/10/15 00:46:22;;;;;;;252.80;61.97;;;11.90;99.90;;;;;;4915550;29;20690;-77
2022/10/15 00:48:53;;;;;;;266.50;62.88;;;11.90;99.90;;;;;;4951009;28;20134;-77
2022/10/15 00:51:20;;;;;;;134.95;55.60;;;11.90;99.90;;;;;;4919283;28;20038;-77
2022/10/15 00:53:47;;;;;;;164.35;58.03;;;11.90;99.90;;;;;;4929426;28;20434;-77
2022/10/15 00:56:14;;;;;;;184.77;60.15;;;11.90;99.90;;;;;;4929986;29;20104;-77
2022/10/15 00:58:41;;;;;;;131.77;55.25;;;11.90;99.90;;;;;;4922354;28;20074;-77
2022/10/15 01:01:06;;;;;;;154.48;57.90;;;11.90;99.90;;;;;;4951322;28;20046;-77
2022/10/15 01:03:34;;;;;;;152.77;57.47;;;11.90;99.90;;;;;;4925516;28;20093;-77
2022/10/15 01:06:00;;;;;;;147.77;57.20;;;11.90;99.90;;;;;;4931393;29;20035;-77
2022/10/15 01:08:25;;;;;;;167.38;57.28;;;11.90;99.90;;;;;;4922284;28;20090;-77
2022/10/15 01:11:12;;;;;;;125.88;54.13;;;11.90;99.90;;;;;;4930110;28;20046;-77
2022/10/15 01:14:26;;;;;;;106.50;51.53;;;11.90;99.90;;;;;;4945972;28;20051;-77
2022/10/15 01:17:26;;;;;;;98.50;48.83;;;11.90;99.90;;;;;;4895089;28;20048;-77
2022/10/15 01:20:17;;;;;;;114.75;50.67;;;11.90;99.90;;;;;;4927455;29;20142;-77
2022/10/15 01:23:21;;;;;;;111.43;50.55;;;11.80;99.90;;;;;;4931313;28;20040;-77
2022/10/15 01:25:58;;;;;;;140.18;53.10;;;11.90;99.90;;;;;;4925877;28;20051;-77
2022/10/15 01:28:30;;;;;;;138.68;52.33;;;11.80;99.90;;;;;;4933248;29;20043;-77
2022/10/15 01:31:01;;;;;;;97.97;49.97;;;11.90;99.90;;;;;;4945257;28;20102;-77
2022/10/15 01:33:47;;;;;;;128.77;51.58;;;11.90;99.90;;;;;;4931375;29;20048;-77
2022/10/15 01:36:18;;;;;;;117.93;50.75;;;11.90;99.90;;;;;;4927591;29;20130;-77
2022/10/15 01:39:04;;;;;;;141.35;52.30;;;11.90;99.90;;;;;;4927647;28;20051;-77
2022/10/15 01:41:34;;;;;;;105.75;48.97;;;11.90;99.90;;;;;;4930945;29;20055;-77
2022/10/15 01:44:05;;;;;;;126.68;51.35;;;11.90;99.90;;;;;;4930217;28;20051;-77
2022/10/15 01:47:03;;;;;;;126.45;51.17;;;11.90;99.90;;;;;;4931097;29;20091;-77
2022/10/15 01:49:33;;;;;;;118.45;50.45;;;11.90;99.90;;;;;;4915292;28;21904;-77
2022/10/15 01:52:05;;;;;;;100.22;46.80;;;12.00;99.90;;;;;;4929201;28;20505;-77
2022/10/15 01:54:31;;;;;;;127.68;49.55;;;11.90;99.90;;;;;;4911150;28;20071;-77
2022/10/15 01:56:58;;;;;;;126.68;49.97;;;11.90;99.90;;;;;;4926812;29;20075;-77
2022/10/15 01:59:28;;;;;;;119.05;48.60;;;11.90;99.90;;;;;;4929044;29;20055;-77
2022/10/15 02:01:54;;;;;;;110.40;47.83;;;11.90;99.90;;;;;;4930791;29;20043;-77
2022/10/15 02:04:23;;;;;;;117.93;48.45;;;11.90;99.90;;;;;;4926472;29;20044;-77
2022/10/15 02:07:22;;;;;;;115.40;46.50;;;11.90;99.90;;;;;;4930660;28;20101;-77
2022/10/15 02:10:11;;;;;;;103.20;46.33;;;11.90;99.90;;;;;;4932649;28;20527;-77
2022/10/15 02:12:50;;;;;;;101.25;44.95;;;11.90;99.90;;;;;;4952723;28;20043;-77
2022/10/15 02:16:02;;;;;;;110.13;47.30;;;11.90;99.90;;;;;;4934314;29;20466;-77
2022/10/15 02:18:42;;;;;;;95.22;43.53;;;11.90;99.90;;;;;;4935406;28;20509;-77
2022/10/15 02:21:36;;;;;;;95.90;45.30;;;11.90;99.90;;;;;;4918256;29;20510;-77
2022/10/15 02:24:10;;;;;;;96.68;45.05;;;11.90;99.90;;;;;;4914857;28;20042;-77
2022/10/15 02:26:39;;;;;;;95.22;45.17;;;11.90;99.90;;;;;;4932450;29;20039;-77
2022/10/15 02:29:09;;;;;;;104.50;45.83;;;11.90;99.90;;;;;;4934084;28;20062;-77
2022/10/15 02:31:37;;;;;;;93.40;44.20;;;11.90;99.90;;;;;;4934610;29;20122;-77
2022/10/15 02:34:08;;;;;;;112.88;46.10;;;11.90;99.90;;;;;;4928745;28;20050;-77
2022/10/15 02:36:34;;;;;;;109.05;45.45;;;11.90;99.90;;;;;;4935517;29;20047;-77
2022/10/15 02:39:03;;;;;;;111.40;46.28;;;11.90;99.90;;;;;;4938226;29;20047;-77
2022/10/15 02:41:29;;;;;;;89.95;43.97;;;11.90;99.90;;;;;;4931401;28;20071;-77
2022/10/15 02:43:55;;;;;;;113.60;44.83;;;11.90;99.90;;;;;;4919374;28;20035;-77
2022/10/15 02:46:20;;;;;;;106.00;44.38;;;11.90;99.90;;;;;;4927397;28;20044;-77
2022/10/15 02:48:46;;;;;;;96.32;42.78;;;11.90;99.90;;;;;;4937853;29;20043;-77
2022/10/15 02:51:12;;;;;;;86.15;41.10;;;11.90;99.90;;;;;;4933218;28;20101;-77
2022/10/15 02:53:37;;;;;;;100.63;42.17;;;11.90;99.90;;;;;;4949257;28;20082;-77
2022/10/15 02:56:03;;;;;;;90.07;43.47;;;11.90;99.90;;;;;;4920012;29;20043;-77
2022/10/15 02:58:29;;;;;;;95.13;42.10;;;11.90;99.90;;;;;;4937432;28;20055;-77
2022/10/15 03:00:55;;;;;;;89.03;41.85;;;11.90;99.90;;;;;;4948516;28;20078;-77
2022/10/15 03:03:22;;;;;;;88.82;41.53;;;11.90;99.90;;;;;;4931096;29;20040;-77
2022/10/15 03:05:47;;;;;;;96.43;41.75;;;11.80;99.90;;;;;;4936014;29;20071;-77
2022/10/15 03:08:13;;;;;;;87.32;41.13;;;11.90;99.90;;;;;;4935414;29;20074;-77
2022/10/15 03:10:38;;;;;;;92.45;42.28;;;11.90;99.90;;;;;;4931915;28;20409;-77
2022/10/15 03:13:05;;;;;;;94.85;42.05;;;11.90;99.90;;;;;;4931807;29;20094;-77
2022/10/15 03:15:31;;;;;;;80.15;39.60;;;11.90;99.90;;;;;;4935832;28;20043;-77
2022/10/15 03:17:56;;;;;;;86.60;40.75;;;11.90;99.90;;;;;;4932117;28;20130;-78
2022/10/15 03:20:22;;;;;;;75.90;39.65;;;11.90;99.90;;;;;;4933982;28;20102;-77
2022/10/15 03:22:48;;;;;;;93.88;41.33;;;11.80;99.90;;;;;;4932615;28;20481;-77
2022/10/15 03:25:13;;;;;;;79.95;41.42;;;11.90;99.90;;;;;;4937094;29;20070;-77
2022/10/15 03:27:39;;;;;;;79.47;41.20;;;11.90;99.90;;;;;;4915729;28;20043;-78
2022/10/15 03:30:05;;;;;;;87.68;41.72;;;11.90;99.90;;;;;;4938392;29;20443;-77
2022/10/15 03:32:31;;;;;;;85.97;40.05;;;11.90;99.90;;;;;;4931907;28;20122;-77
2022/10/15 03:34:56;;;;;;;86.47;41.70;;;11.90;99.90;;;;;;4916949;28;20056;-77
2022/10/15 03:37:22;;;;;;;95.25;42.17;;;11.90;99.90;;;;;;4933315;29;20055;-77
2022/10/15 03:39:47;;;;;;;100.35;44.97;;;11.90;99.90;;;;;;4934351;28;20085;-77
2022/10/15 03:42:13;;;;;;;100.15;44.70;;;11.90;99.90;;;;;;4921297;29;20047;-78
2022/10/15 03:44:39;;;;;;;109.72;45.90;;;11.90;99.90;;;;;;4918472;28;20051;-77
2022/10/15 03:47:04;;;;;;;110.07;46.03;;;11.90;99.90;;;;;;4930408;29;20571;-77
2022/10/15 03:49:30;;;;;;;102.85;47.20;;;11.90;99.90;;;;;;4933949;28;20043;-77
2022/10/15 03:51:56;;;;;;;102.82;47.10;;;11.90;99.90;;;;;;4929042;28;20058;-77
2022/10/15 03:54:21;;;;;;;110.72;47.75;;;11.90;99.90;;;;;;4932622;28;20051;-77
2022/10/15 03:56:47;;;;;;;120.93;50.00;;;11.90;99.90;;;;;;4936892;28;20055;-77
2022/10/15 03:59:13;;;;;;;96.20;45.78;;;11.90;99.90;;;;;;4912615;29;20079;-77
2022/10/15 04:01:38;;;;;;;109.50;48.75;;;11.90;99.90;;;;;;4914225;28;20121;-78
2022/10/15 04:04:04;;;;;;;116.78;48.65;;;11.90;99.90;;;;;;4933120;29;20039;-78
2022/10/15 04:06:33;;;;;;;99.03;46.92;;;11.90;99.90;;;;;;4930373;28;20071;-78
2022/10/15 04:08:58;;;;;;;98.53;46.97;;;11.90;99.90;;;;;;4931590;29;20047;-77
2022/10/15 04:11:24;;;;;;;101.78;48.42;;;11.80;99.90;;;;;;4932265;29;20043;-78
2022/10/15 04:13:50;;;;;;;107.15;47.33;;;11.80;99.90;;;;;;4919625;28;20071;-78
2022/10/15 04:16:16;;;;;;;122.60;48.35;;;11.70;99.90;;;;;;4933005;29;20050;-77
2022/10/15 04:18:42;;;;;;;109.60;46.75;;;11.70;99.90;;;;;;4930391;28;20545;-77
2022/10/15 04:21:08;;;;;;;98.78;46.35;;;11.70;99.90;;;;;;4938824;29;20071;-77
2022/10/15 04:23:34;;;;;;;99.97;45.70;;;11.60;99.90;;;;;;4936370;29;20070;-77
2022/10/15 04:26:00;;;;;;;98.50;45.30;;;11.60;99.90;;;;;;4929388;28;20066;-77
2022/10/15 04:28:26;;;;;;;88.85;45.17;;;11.50;99.90;;;;;;4930073;28;20036;-77
2022/10/15 04:30:58;;;;;;;92.22;45.65;;;11.40;99.90;;;;;;4947848;29;20541;-78
2022/10/15 04:33:24;;;;;;;86.15;42.58;;;11.30;99.90;;;;;;4929253;28;20046;-77
2022/10/15 04:36:08;;;;;;;108.53;46.00;;;11.30;99.90;;;;;;4934739;28;20050;-77
2022/10/15 04:38:34;;;;;;;115.07;47.15;;;11.30;99.90;;;;;;4935299;28;20113;-77
2022/10/15 04:41:01;;;;;;;85.32;43.75;;;11.20;99.90;;;;;;4929579;29;20075;-78
2022/10/15 04:43:27;;;;;;;82.97;43.50;;;11.20;99.90;;;;;;4936332;29;20087;-78
2022/10/15 04:45:57;;;;;;;86.85;44.78;;;11.20;99.90;;;;;;4942129;28;20062;-78
2022/10/15 04:48:23;;;;;;;107.78;50.15;;;11.20;99.90;;;;;;4944226;28;20485;-78
2022/10/15 04:50:48;;;;;;;80.82;44.17;;;11.10;99.90;;;;;;4939158;28;20049;-78
2022/10/15 04:53:14;;;;;;;99.88;47.72;;;11.00;99.90;;;;;;4932710;29;20538;-78
2022/10/15 04:55:40;;;;;;;102.55;48.17;;;11.10;99.90;;;;;;4936144;29;20074;-78
2022/10/15 04:58:05;;;;;;;118.75;48.80;;;11.10;99.90;;;;;;4939656;28;20133;-78
2022/10/15 05:00:31;;;;;;;141.25;52.55;;;11.10;99.90;;;;;;4943529;29;20046;-78
2022/10/15 05:02:56;;;;;;;146.43;51.28;;;11.10;99.90;;;;;;4918854;29;20059;-77
2022/10/15 05:05:22;;;;;;;126.35;49.28;;;11.10;99.90;;;;;;4939099;29;20102;-78
2022/10/15 05:07:47;;;;;;;148.25;52.03;;;11.10;99.90;;;;;;4940094;28;20093;-77
2022/10/15 05:10:13;;;;;;;142.43;52.88;;;11.00;99.90;;;;;;4931080;29;20055;-78
2022/10/15 05:12:39;;;;;;;154.55;53.78;;;11.00;99.90;;;;;;4930813;29;20047;-78
2022/10/15 05:15:05;;;;;;;140.45;53.97;;;11.00;99.90;;;;;;4941698;29;20039;-78
2022/10/15 05:17:30;;;;;;;134.77;52.75;;;11.00;99.90;;;;;;4917052;29;20039;-77
2022/10/15 05:19:56;;;;;;;185.90;57.78;;;11.00;99.90;;;;;;4940738;28;20430;-78
2022/10/15 05:22:21;;;;;;;154.82;56.75;;;11.10;99.90;;;;;;4931051;29;20040;-78
2022/10/15 05:24:47;;;;;;;178.35;57.20;;;11.10;99.90;;;;;;4931205;28;20490;-78
2022/10/15 05:27:12;;;;;;;186.68;58.53;;;11.10;99.90;;;;;;4936864;29;20046;-78
2022/10/15 05:29:38;;;;;;;186.18;58.55;;;11.00;99.90;;;;;;4933573;29;20047;-78
2022/10/15 05:32:04;;;;;;;170.32;57.05;;;11.10;99.90;;;;;;4940970;28;20049;-78
2022/10/15 05:34:30;;;;;;;151.15;58.85;;;11.10;99.90;;;;;;4935429;29;20149;-78
2022/10/15 05:36:55;;;;;;;166.35;60.35;;;11.10;99.90;;;;;;4918166;28;20130;-78
2022/10/15 05:39:21;;;;;;;184.20;62.20;;;11.10;99.90;;;;;;4934851;29;20055;-78
2022/10/15 05:41:48;;;;;;;184.77;61.90;;;11.20;99.90;;;;;;4941683;28;20039;-78
2022/10/15 05:44:14;;;;;;;186.45;65.25;;;11.30;99.90;;;;;;4932618;29;20040;-78
2022/10/15 05:46:40;;;;;;;185.40;63.92;;;11.30;99.90;;;;;;4925108;28;20094;-78
2022/10/15 05:49:06;;;;;;;180.98;64.53;;;11.30;99.90;;;;;;4935992;29;20035;-78
2022/10/15 05:51:31;;;;;;;183.07;64.55;;;11.30;99.90;;;;;;4914736;29;20518;-78
2022/10/15 05:53:57;;;;;;;190.48;65.07;;;11.40;99.90;;;;;;4925739;29;20051;-78
2022/10/15 05:56:23;;;;;;;169.07;62.95;;;11.40;99.90;;;;;;4938681;29;20091;-77
2022/10/15 05:58:50;;;;;;;203.90;65.50;;;11.50;99.90;;;;;;4920941;29;20587;-78
2022/10/15 06:01:16;;;;;;;161.35;61.88;;;11.60;99.90;;;;;;4935851;29;20098;-78
2022/10/15 06:03:42;;;;;;;185.20;66.68;;;11.50;99.90;;;;;;4933943;29;20047;-78
2022/10/15 06:06:20;;;;;;;184.73;64.60;;;11.50;99.90;;;;;;4919659;29;20035;-78
2022/10/15 06:08:46;;;;;;;170.32;62.42;;;11.50;99.90;;;;;;4927864;29;20079;-78
2022/10/15 06:11:12;;;;;;;188.75;65.28;;;11.60;99.90;;;;;;4939962;28;20587;-78
2022/10/15 06:13:40;;;;;;;187.85;66.45;;;11.50;99.90;;;;;;4932153;29;20130;-77
2022/10/15 06:16:06;;;;;;;170.75;62.80;;;11.60;99.90;;;;;;4917812;29;20055;-77
2022/10/15 06:18:31;;;;;;;173.80;62.42;;;11.60;99.90;;;;;;4938334;29;20074;-78
2022/10/15 06:20:57;;;;;;;170.93;63.25;;;11.60;99.90;;;;;;4926291;28;20047;-78
2022/10/15 06:23:23;;;;;;;154.13;61.17;;;11.60;99.90;;;;;;4919799;29;20051;-77
2022/10/15 06:25:49;;;;;;;173.90;63.70;;;11.70;99.90;;;;;;4912954;28;20066;-77
2022/10/15 06:28:15;;;;;;;175.45;64.60;;;11.70;99.90;;;;;;4927430;28;20405;-77
2022/10/15 06:30:41;;;;;;;154.55;63.80;;;11.70;99.90;;;;;;4929281;28;20130;-77
2022/10/15 06:33:07;;;;;;;156.73;63.45;;;11.70;99.90;;;;;;4927347;28;20667;-77
2022/10/15 06:35:34;;;;;;;180.90;66.68;;;11.70;99.90;;;;;;4922213;28;20094;-77
2022/10/15 06:38:03;;;;;;;173.05;63.65;;;11.70;99.90;;;;;;4942359;28;20070;-77
2022/10/15 06:40:29;;;;;;;170.30;63.60;;;11.70;99.90;;;;;;4939343;28;20043;-77
2022/10/15 06:43:01;;;;;;;182.20;65.07;;;11.70;99.90;;;;;;4922323;28;20126;-78
2022/10/15 06:45:26;;;;;;;187.27;65.40;;;11.80;99.90;;;;;;4931571;29;20061;-75
2022/10/15 06:47:52;;;;;;;153.57;60.90;;;11.80;99.90;;;;;;4924022;28;20299;-77
2022/10/15 06:50:18;;;;;;;147.00;60.97;;;11.80;99.90;;;;;;4926808;29;20454;-77
2022/10/15 06:52:43;;;;;;;154.55;63.50;;;11.90;99.90;;;;;;4944185;29;20047;-77
2022/10/15 06:55:09;;;;;;;160.27;63.55;;;11.90;99.90;;;;;;4940018;29;20077;-77
2022/10/15 06:57:34;;;;;;;162.23;62.50;;;11.90;99.90;;;;;;4939752;29;20039;-78
2022/10/15 07:00:00;;;;;;;154.05;62.00;;;12.00;99.90;;;;;;4935152;29;20134;-78
2022/10/15 07:02:25;;;;;;;155.57;61.30;;;12.00;99.90;;;;;;4917352;29;20042;-77
2022/10/15 07:04:51;;;;;;;154.50;61.35;;;12.00;99.90;;;;;;4937192;29;20050;-77
2022/10/15 07:07:17;;;;;;;143.55;60.40;;;12.00;99.90;;;;;;4938068;29;20046;-77
2022/10/15 07:09:43;;;;;;;161.65;62.05;;;12.00;99.90;;;;;;4943318;29;20047;-77
2022/10/15 07:12:08;;;;;;;148.27;61.72;;;12.10;99.90;;;;;;4944112;29;20425;-77
2022/10/15 07:14:34;;;;;;;138.60;59.08;;;12.10;99.90;;;;;;4940960;29;20107;-77
2022/10/15 07:16:59;;;;;;;171.32;63.88;;;12.10;99.90;;;;;;4922146;29;20425;-77
2022/10/15 07:19:27;;;;;;;151.85;62.78;;;12.20;99.90;;;;;;4937449;29;20059;-77
2022/10/15 07:21:53;;;;;;;153.68;64.00;;;12.20;99.90;;;;;;4936961;28;20135;-77
2022/10/15 07:24:18;;;;;;;154.80;63.67;;;12.30;99.90;;;;;;4937414;29;20043;-77
2022/10/15 07:26:46;;;;;;;148.15;61.05;;;12.30;99.90;;;;;;4916236;28;20047;-77
2022/10/15 07:29:11;;;;;;;137.55;60.20;;;12.30;99.90;;;;;;4942906;29;20082;-77
2022/10/15 07:31:37;;;;;;;140.75;59.33;;;12.40;99.90;;;;;;4939039;29;20458;-77
2022/10/15 07:34:03;;;;;;;131.57;60.97;;;12.50;99.90;;;;;;4942273;29;20413;-77
2022/10/15 07:36:28;;;;;;;127.65;58.05;;;12.50;99.90;;;;;;4943533;29;20081;-77
2022/10/15 07:38:54;;;;;;;129.88;59.17;;;12.50;99.90;;;;;;4937689;29;20039;-77
2022/10/15 07:41:20;;;;;;;130.15;59.50;;;12.50;99.90;;;;;;4938257;29;20102;-77
2022/10/15 07:43:46;;;;;;;142.48;61.35;;;12.60;99.90;;;;;;4937651;29;20133;-77
2022/10/15 07:46:12;;;;;;;123.68;59.35;;;12.60;99.90;;;;;;4935924;29;20126;-77
2022/10/15 07:48:37;;;;;;;139.88;61.22;;;12.60;99.90;;;;;;4922068;29;20070;-77
2022/10/15 07:51:05;;;;;;;131.85;59.95;;;12.60;99.90;;;;;;4926345;28;20126;-77
2022/10/15 07:53:31;;;;;;;131.02;57.83;;;12.70;99.90;;;;;;4925600;29;20134;-77
2022/10/15 07:56:02;;;;;;;96.65;52.72;;;12.80;99.90;;;;;;4946514;28;20142;-77
2022/10/15 07:58:29;;;;;;;124.75;56.22;;;12.90;99.90;;;;;;4943455;29;20544;-77
2022/10/15 08:00:58;;;;;;;100.60;54.38;;;12.90;99.90;;;;;;4934897;29;20043;-77
2022/10/15 08:03:23;;;;;;;108.25;54.80;;;13.00;99.90;;;;;;4938081;29;20046;-77
2022/10/15 08:05:52;;;;;;;114.38;54.72;;;13.00;99.90;;;;;;4942125;29;20415;-77
2022/10/15 08:08:18;;;;;;;99.50;54.33;;;13.00;99.90;;;;;;4935878;29;20134;-77
2022/10/15 08:10:44;;;;;;;114.00;53.65;;;13.00;99.90;;;;;;4926618;29;20048;-77
2022/10/15 08:13:10;;;;;;;103.07;53.70;;;13.00;99.90;;;;;;4941559;29;20066;-77
2022/10/15 08:15:41;;;;;;;98.45;55.08;;;13.10;99.90;;;;;;4925083;29;20510;-77
2022/10/15 08:18:08;;;;;;;116.28;55.90;;;13.10;99.90;;;;;;4931397;29;20047;-77
2022/10/15 08:20:35;;;;;;;110.15;56.60;;;13.20;99.90;;;;;;4940285;29;20049;-77
2022/10/15 08:23:01;;;;;;;94.47;53.67;;;13.20;99.90;;;;;;4915008;29;20048;-77
2022/10/15 08:25:27;;;;;;;108.38;54.45;;;13.30;99.90;;;;;;4927932;29;20089;-77
2022/10/15 08:27:53;;;;;;;103.72;54.25;;;13.30;99.90;;;;;;4949569;29;20112;-77
2022/10/15 08:30:19;;;;;;;91.95;52.75;;;13.30;99.90;;;;;;4937991;29;20087;-77
2022/10/15 08:32:44;;;;;;;102.70;54.65;;;13.30;99.90;;;;;;4924042;29;20102;-77
2022/10/15 08:35:10;;;;;;;109.95;54.35;;;13.30;99.90;;;;;;4923560;29;20051;-77
2022/10/15 08:37:36;;;;;;;99.45;54.13;;;13.30;99.90;;;;;;4925139;28;20050;-77
2022/10/15 08:40:04;;;;;;;94.18;52.70;;;13.40;99.90;;;;;;4942210;28;20662;-77
2022/10/15 08:42:44;;;;;;;111.43;55.10;;;13.40;99.90;;;;;;4917638;29;20070;-77
2022/10/15 08:45:18;;;;;;;101.47;54.92;;;13.40;99.90;;;;;;4943292;29;20066;-77
2022/10/15 08:48:13;;;;;;;104.50;53.63;;;13.40;99.90;;;;;;4937991;29;20046;-77
2022/10/15 08:50:53;;;;;;;103.38;53.92;;;13.40;99.90;;;;;;4947881;29;20043;-77
2022/10/15 08:53:22;;;;;;;104.63;53.90;;;13.50;99.90;;;;;;4943097;29;20105;-77
2022/10/15 08:55:50;;;;;;;99.75;53.38;;;13.40;99.90;;;;;;4936678;29;20410;-77
2022/10/15 08:58:24;;;;;;;94.85;51.65;;;13.40;99.90;;;;;;4928388;29;20050;-77
2022/10/15 09:00:57;;;;;;;95.25;47.72;;;13.50;99.90;;;;;;4919127;29;20043;-77
2022/10/15 09:03:43;;;;;;;97.43;46.72;;;13.50;99.90;;;;;;4942679;29;20054;-77
2022/10/15 09:06:19;;;;;;;95.40;44.85;;;13.50;99.90;;;;;;4937659;29;20094;-77
2022/10/15 09:09:04;;;;;;;101.38;45.75;;;13.40;99.90;;;;;;4925137;29;20114;-77
2022/10/15 09:12:00;;;;;;;96.25;45.30;;;13.40;99.90;;;;;;4952172;28;20054;-77
2022/10/15 09:14:33;;;;;;;91.22;43.17;;;13.30;99.90;;;;;;4922668;29;20090;-77
2022/10/15 09:17:04;;;;;;;88.45;41.17;;;13.30;99.90;;;;;;4936802;29;20126;-77
2022/10/15 09:19:31;;;;;;;85.25;39.70;;;13.30;99.90;;;;;;4920345;28;20082;-77
2022/10/15 09:22:01;;;;;;;74.40;37.80;;;13.30;99.90;;;;;;4930647;29;20051;-77
2022/10/15 09:24:28;;;;;;;74.05;38.40;;;13.30;99.90;;;;;;4938519;29;20502;-77
2022/10/15 09:27:14;;;;;;;76.95;37.30;;;13.20;99.90;;;;;;4955688;28;20039;-77
2022/10/15 09:30:22;;;;;;;71.28;35.90;;;13.30;99.90;;;;;;4933992;28;20043;-77
2022/10/15 09:33:12;;;;;;;76.68;35.72;;;13.30;99.90;;;;;;4869974;29;20418;-77
2022/10/15 09:35:41;;;;;;;65.35;34.22;;;13.30;99.90;;;;;;4929409;28;20070;-77
2022/10/15 09:38:34;;;;;;;69.05;35.55;;;13.40;99.90;;;;;;4936754;29;20047;-77
2022/10/15 09:41:25;;;;;;;66.93;35.13;;;13.30;99.90;;;;;;4931870;29;20076;-77
2022/10/15 09:43:54;;;;;;;70.03;35.17;;;13.40;99.90;;;;;;4930023;29;20050;-78
2022/10/15 09:46:20;;;;;;;77.72;38.00;;;13.30;99.90;;;;;;4938151;29;20036;-77
2022/10/15 09:48:55;;;;;;;72.72;36.70;;;13.40;99.90;;;;;;4907109;28;20055;-77
2022/10/15 09:51:43;;;;;;;70.05;35.83;;;13.50;99.90;;;;;;4924491;29;20044;-77
2022/10/15 09:54:22;;;;;;;71.55;35.67;;;13.50;99.90;;;;;;4933370;29;20070;-77
2022/10/15 09:56:54;;;;;;;75.28;37.17;;;13.50;99.90;;;;;;4934860;28;20200;-77
2022/10/15 09:59:21;;;;;;;68.83;35.20;;;13.50;99.90;;;;;;4928291;29;20378;-77
2022/10/15 10:02:24;;;;;;;71.15;35.83;;;13.60;99.90;;;;;;4932813;29;20294;-77
2022/10/15 10:04:51;;;;;;;68.43;36.08;;;13.60;99.90;;;;;;4933778;29;20050;-77
2022/10/15 10:07:32;;;;;;;66.93;35.63;;;13.60;99.90;;;;;;4931826;28;20043;-77
2022/10/15 10:10:06;;;;;;;65.25;35.58;;;13.60;99.90;;;;;;4916097;28;20057;-77
2022/10/15 10:12:34;;;;;;;74.65;37.83;;;13.60;99.90;;;;;;4930420;29;20074;-77
2022/10/15 10:15:25;;;;;;;73.07;36.08;;;13.60;99.90;;;;;;4931228;29;20052;-77
2022/10/15 10:17:55;;;;;;;66.05;34.42;;;13.60;99.90;;;;;;4915972;29;20453;-77
2022/10/15 10:20:26;;;;;;;58.83;33.75;;;13.70;99.90;;;;;;4946400;28;20050;-80
2022/10/15 10:22:54;;;;;;;65.07;35.77;;;13.70;99.90;;;;;;4925641;29;20039;-81
2022/10/15 10:26:34;;;;;;;57.83;34.38;;;13.70;99.90;;;;;;4929296;29;20333;-81
2022/10/15 10:29:20;;;;;;;58.63;32.95;;;13.80;99.90;;;;;;4924328;29;20101;-81
2022/10/15 10:31:58;;;;;;;56.15;32.50;;;14.00;99.90;;;;;;4951402;28;20747;-81
2022/10/15 10:34:32;;;;;;;49.20;30.60;;;14.10;99.90;;;;;;4930761;29;20618;-81
2022/10/15 10:37:12;;;;;;;53.10;31.33;;;14.20;99.90;;;;;;4935954;29;20059;-81
2022/10/15 10:39:55;;;;;;;49.88;30.33;;;14.30;99.90;;;;;;4925199;28;20072;-80
2022/10/15 10:42:39;;;;;;;47.33;29.50;;;14.40;99.90;;;;;;4942339;28;20035;-77
2022/10/15 10:45:22;;;;;;;44.05;28.23;;;14.50;99.90;;;;;;4917054;29;20035;-77
2022/10/15 10:47:48;;;;;;;38.30;25.38;;;14.50;99.90;;;;;;4933177;28;20094;-77
2022/10/15 10:50:39;;;;;;;37.85;25.70;;;14.60;99.90;;;;;;4951220;28;20039;-77
2022/10/15 10:53:33;;;;;;;35.00;25.08;;;14.70;99.90;;;;;;4931963;29;20057;-77
2022/10/15 10:56:00;;;;;;;33.45;24.40;;;14.80;99.90;;;;;;4954476;28;20055;-77
2022/10/15 10:58:28;;;;;;;31.67;23.75;;;14.70;99.90;;;;;;4933635;29;20095;-77
2022/10/15 11:00:57;;;;;;;29.23;22.75;;;14.80;99.90;;;;;;4939970;28;20043;-78
2022/10/15 11:03:32;;;;;;;28.90;21.52;;;14.80;99.90;;;;;;4933216;28;20048;-77
2022/10/15 11:06:30;;;;;;;30.88;21.58;;;14.80;99.90;;;;;;4924718;28;20047;-77
2022/10/15 11:09:08;;;;;;;27.70;21.67;;;14.80;99.90;;;;;;4942216;28;20099;-77
2022/10/15 11:11:42;;;;;;;31.65;22.85;;;14.80;99.90;;;;;;4926358;28;20051;-77
2022/10/15 11:14:16;;;;;;;30.48;23.58;;;14.90;99.90;;;;;;4947868;28;20138;-77
2022/10/15 11:17:02;;;;;;;29.67;23.13;;;14.90;99.90;;;;;;4928401;29;20127;-77
2022/10/15 11:19:51;;;;;;;33.03;23.20;;;14.90;99.90;;;;;;4930752;29;20046;-77
2022/10/15 11:22:45;;;;;;;28.08;21.88;;;14.90;99.90;;;;;;4942521;28;20043;-77
2022/10/15 11:25:19;;;;;;;26.70;22.58;;;14.90;99.90;;;;;;4951722;28;20043;-77
2022/10/15 11:27:55;;;;;;;28.92;22.63;;;14.90;99.90;;;;;;4929850;28;20043;-77
2022/10/15 11:30:48;;;;;;;29.52;22.73;;;14.90;99.90;;;;;;4929696;29;20131;-77
2022/10/15 11:33:31;;;;;;;31.73;22.73;;;14.90;99.90;;;;;;4938784;29;20090;-77
2022/10/15 11:36:18;;;;;;;30.73;22.52;;;14.90;99.90;;;;;;4929115;28;20059;-77
2022/10/15 11:39:05;;;;;;;33.15;23.13;;;14.90;99.90;;;;;;4938910;28;20095;-77
2022/10/15 11:42:13;;;;;;;29.13;22.52;;;14.90;99.90;;;;;;4934036;29;20135;-77
2022/10/15 11:44:57;;;;;;;30.92;22.58;;;14.90;99.90;;;;;;4923189;28;20046;-77
2022/10/15 11:47:41;;;;;;;35.70;23.95;;;14.90;99.90;;;;;;4933876;29;20042;-77
2022/10/15 11:50:16;;;;;;;32.30;24.92;;;15.00;99.90;;;;;;4919793;29;20039;-77
2022/10/15 11:53:12;;;;;;;34.85;23.80;;;15.00;99.90;;;;;;4934792;28;20544;-78
2022/10/15 11:55:41;;;;;;;30.05;22.50;;;15.10;99.90;;;;;;4932950;29;20051;-77
2022/10/15 11:58:24;;;;;;;32.58;24.20;;;15.30;99.90;;;;;;4932112;29;20092;-77
2022/10/15 12:00:55;;;;;;;31.60;22.77;;;15.40;99.90;;;;;;4922032;29;20047;-77
2022/10/15 12:03:28;;;;;;;29.42;22.33;;;15.50;99.90;;;;;;4913847;29;20486;-77
2022/10/15 12:06:17;;;;;;;30.92;21.58;;;15.50;99.90;;;;;;4927672;29;20039;-78
2022/10/15 12:08:44;;;;;;;31.27;21.40;;;15.60;99.90;;;;;;4934712;28;20036;-77
2022/10/15 12:11:26;;;;;;;34.30;21.23;;;15.60;99.90;;;;;;4948271;28;20126;-78
2022/10/15 12:14:01;;;;;;;25.40;19.80;;;15.60;99.90;;;;;;4931160;28;20050;-78
2022/10/15 12:16:40;;;;;;;27.50;19.95;;;15.50;99.90;;;;;;4931599;29;20296;-78
2022/10/15 12:19:12;;;;;;;29.95;20.85;;;15.40;99.90;;;;;;4947260;28;20044;-78
2022/10/15 12:22:05;;;;;;;27.85;21.02;;;15.60;99.90;;;;;;4935166;28;20434;-77
2022/10/15 12:24:37;;;;;;;25.58;20.73;;;15.50;99.90;;;;;;4915621;28;20130;-77
2022/10/15 12:27:18;;;;;;;31.27;22.10;;;15.50;99.90;;;;;;4940479;29;20043;-78
2022/10/15 12:29:58;;;;;;;31.17;22.83;;;15.50;99.90;;;;;;4923007;29;20043;-78
2022/10/15 12:32:30;;;;;;;31.33;22.83;;;15.50;99.90;;;;;;4943058;28;20062;-78
2022/10/15 12:34:58;;;;;;;33.67;23.23;;;15.60;99.90;;;;;;4924140;29;20450;-78
2022/10/15 12:37:27;;;;;;;35.67;23.40;;;15.50;99.90;;;;;;4930833;29;20125;-78
2022/10/15 12:40:22;;;;;;;33.72;22.80;;;15.50;99.90;;;;;;4916654;28;20131;-78
2022/10/15 12:42:53;;;;;;;33.70;23.48;;;15.50;99.90;;;;;;4935917;28;20043;-77
2022/10/15 12:45:23;;;;;;;31.08;22.75;;;15.50;99.90;;;;;;4931843;29;20055;-77